Time;durP1;ratioP1;P1;durP2;ratioP2;P2;SDS_P1;SDS_P2;PMS_P1;PMS_P2;Temp;Humidity;BMP_temperature;BMP_pressure;BME280_temperature;BME280_humidity;BME280_pressure;Samples;Min_cycle;Max_cycle;Signal;HPM_P1;HPM_P2
2022/08/24 00:00:04;;;;;;;;;;;;;;;;;;344432;28;960;-66
2022/08/24 00:00:17;;;;;;;;;;;;;;;;;;344406;28;913;-66
2022/08/24 00:00:28;;;;;;;;;;;;;;;;;;344603;28;869;-66
2022/08/24 00:00:39;;;;;;;;;;;;;;;;;;344446;28;869;-66
2022/08/24 00:00:49;;;;;;;;;;;;;;;;;;344404;28;772;-66
2022/08/24 00:00:59;;;;;;;;;;;;;;;;;;344458;28;988;-66
2022/08/24 00:01:10;;;;;;;;;;;;;;;;;;344414;28;937;-66
2022/08/24 00:01:20;;;;;;;;;;;;;;;;;;344443;28;809;-67
2022/08/24 00:01:31;;;;;;;;;;;;;;;;;;344385;28;929;-66
2022/08/24 00:01:41;;;;;;;;;;;;;;;;;;344386;28;827;-66
2022/08/24 00:01:51;;;;;;;;;;;;;;;;;;344432;28;980;-66
2022/08/24 00:02:02;;;;;;;;;;;;;;;;;;344411;28;908;-66
2022/08/24 00:02:12;;;;;;;;;;;;;;;;;;344382;28;940;-67
2022/08/24 00:02:23;;;;;;;;;;;;;;;;;;344377;28;962;-66
2022/08/24 00:02:33;;;;;;;;;;;;;;;;;;344283;28;1081;-66
2022/08/24 00:02:43;;;;;;;;;;;;;;;;;;344383;28;1051;-66
2022/08/24 00:02:54;;;;;;;;;;;;;;;;;;344374;28;917;-67
2022/08/24 00:03:06;;;;;;;;;;;;;;;;;;344442;28;948;-66
2022/08/24 00:03:16;;;;;;;;;;;;;;;;;;344478;28;805;-66
2022/08/24 00:03:26;;;;;;;;;;;;;;;;;;344393;28;949;-66
2022/08/24 00:03:37;;;;;;;;;;;;;;;;;;344394;28;833;-66
2022/08/24 00:03:48;;;;;;;;;;;;;;;;;;344423;28;932;-66
2022/08/24 00:03:58;;;;;;;;;;;;;;;;;;344383;28;1003;-66
2022/08/24 00:04:08;;;;;;;;;;;;;;;;;;346945;28;1158;-66
2022/08/24 00:04:18;;;;;;;;;;;;;;;;;;347015;28;883;-66
2022/08/24 00:04:29;;;;;;;;;;;;;;;;;;346997;28;924;-66
2022/08/24 00:04:39;;;;;;;;;;;;;;;;;;347070;28;976;-66
2022/08/24 00:04:50;;;;;;;;;;;;;;;;;;347049;28;923;-66
2022/08/24 00:05:00;;;;;;;;;;;;;;;;;;346988;28;912;-66
2022/08/24 00:05:10;;;;;;;;;;;;;;;;;;347026;28;949;-66
2022/08/24 00:05:21;;;;;;;;;;;;;;;;;;347053;28;861;-66
2022/08/24 00:05:31;;;;;;;;;;;;;;;;;;346978;28;912;-66
2022/08/24 00:05:41;;;;;;;;;;;;;;;;;;347052;28;960;-66
2022/08/24 00:05:52;;;;;;;;;;;;;;;;;;346963;28;1078;-66
2022/08/24 00:06:03;;;;;;;;;;;;;;;;;;346097;28;944;-66
2022/08/24 00:06:16;;;;;;;;;;;;;;;;;;344455;28;964;-66
2022/08/24 00:06:27;;;;;;;;;;;;;;;;;;344396;28;788;-66
2022/08/24 00:06:37;;;;;;;;;;;;;;;;;;344410;28;893;-67
2022/08/24 00:06:48;;;;;;;;;;;;;;;;;;344423;28;952;-66
2022/08/24 00:06:59;;;;;;;;;;;;;;;;;;344384;28;1056;-66
2022/08/24 00:07:09;;;;;;;;;;;;;;;;;;344399;28;968;-66
2022/08/24 00:07:20;;;;;;;;;;;;;;;;;;344217;28;1371;-66
2022/08/24 00:07:31;;;;;;;;;;;;;;;;;;344329;28;1292;-66
2022/08/24 00:07:41;;;;;;;;;;;;;;;;;;344358;28;1308;-66
2022/08/24 00:07:51;;;;;;;;;;;;;;;;;;344405;28;925;-66
2022/08/24 00:08:02;;;;;;;;;;;;;;;;;;344363;28;1052;-66
2022/08/24 00:08:12;;;;;;;;;;;;;;;;;;344388;28;933;-66
2022/08/24 00:08:23;;;;;;;;;;;;;;;;;;344429;28;889;-66
2022/08/24 00:08:33;;;;;;;;;;;;;;;;;;344405;28;1019;-66
2022/08/24 00:08:44;;;;;;;;;;;;;;;;;;344352;28;1001;-66
2022/08/24 00:08:55;;;;;;;;;;;;;;;;;;344414;28;917;-66
2022/08/24 00:09:05;;;;;;;;;;;;;;;;;;344450;28;909;-66
2022/08/24 00:09:15;;;;;;;;;;;;;;;;;;344383;28;933;-67
2022/08/24 00:09:26;;;;;;;;;;;;;;;;;;344363;28;1961;-67
2022/08/24 00:09:36;;;;;;;;;;;;;;;;;;344371;28;937;-66
2022/08/24 00:09:46;;;;;;;;;;;;;;;;;;344380;28;992;-66
2022/08/24 00:09:57;;;;;;;;;;;;;;;;;;344360;28;909;-66
2022/08/24 00:10:09;;;;;;;;;;;;;;;;;;344502;28;957;-66
2022/08/24 00:10:20;;;;;;;;;;;;;;;;;;344338;28;984;-66
2022/08/24 00:10:30;;;;;;;;;;;;;;;;;;344418;28;889;-66
2022/08/24 00:10:41;;;;;;;;;;;;;;;;;;344406;28;963;-67
2022/08/24 00:10:51;;;;;;;;;;;;;;;;;;344441;28;932;-67
2022/08/24 00:11:02;;;;;;;;;;;;;;;;;;344451;28;917;-66
2022/08/24 00:11:12;;;;;;;;;;;;;;;;;;344346;28;1008;-67
2022/08/24 00:11:22;;;;;;;;;;;;;;;;;;344405;28;925;-66
2022/08/24 00:11:33;;;;;;;;;;;;;;;;;;344433;28;975;-66
2022/08/24 00:11:44;;;;;;;;;;;;;;;;;;344382;28;940;-66
2022/08/24 00:11:54;;;;;;;;;;;;;;;;;;344462;28;924;-66
2022/08/24 00:12:04;;;;;;;;;;;;;;;;;;344336;28;993;-66
2022/08/24 00:12:15;;;;;;;;;;;;;;;;;;344385;28;979;-66
2022/08/24 00:12:26;;;;;;;;;;;;;;;;;;344419;28;952;-67
2022/08/24 00:12:36;;;;;;;;;;;;;;;;;;344348;28;1007;-67
2022/08/24 00:12:46;;;;;;;;;;;;;;;;;;344402;28;885;-66
2022/08/24 00:12:57;;;;;;;;;;;;;;;;;;344392;28;924;-66
2022/08/24 00:13:08;;;;;;;;;;;;;;;;;;344431;28;837;-66
2022/08/24 00:13:19;;;;;;;;;;;;;;;;;;344421;28;932;-66
2022/08/24 00:13:29;;;;;;;;;;;;;;;;;;344373;28;995;-66
2022/08/24 00:13:39;;;;;;;;;;;;;;;;;;344380;28;1068;-66
2022/08/24 00:13:50;;;;;;;;;;;;;;;;;;344443;28;826;-66
2022/08/24 00:14:00;;;;;;;;;;;;;;;;;;344389;28;941;-66
2022/08/24 00:14:10;;;;;;;;;;;;;;;;;;344365;28;957;-66
2022/08/24 00:14:21;;;;;;;;;;;;;;;;;;344440;28;973;-66
2022/08/24 00:14:31;;;;;;;;;;;;;;;;;;344364;28;881;-66
2022/08/24 00:14:41;;;;;;;;;;;;;;;;;;344407;28;867;-66
2022/08/24 00:14:52;;;;;;;;;;;;;;;;;;344398;28;857;-66
2022/08/24 00:15:03;;;;;;;;;;;;;;;;;;344393;28;992;-66
2022/08/24 00:15:14;;;;;;;;;;;;;;;;;;344356;28;953;-66
2022/08/24 00:15:24;;;;;;;;;;;;;;;;;;344417;28;854;-66
2022/08/24 00:15:34;;;;;;;;;;;;;;;;;;344429;28;889;-66
2022/08/24 00:15:45;;;;;;;;;;;;;;;;;;344359;28;1008;-66
2022/08/24 00:15:56;;;;;;;;;;;;;;;;;;344420;28;980;-66
2022/08/24 00:16:07;;;;;;;;;;;;;;;;;;344397;28;917;-67
2022/08/24 00:16:17;;;;;;;;;;;;;;;;;;344370;28;821;-66
2022/08/24 00:16:28;;;;;;;;;;;;;;;;;;344411;28;936;-66
2022/08/24 00:16:38;;;;;;;;;;;;;;;;;;344363;28;1008;-66
2022/08/24 00:16:48;;;;;;;;;;;;;;;;;;344415;28;972;-66
2022/08/24 00:16:58;;;;;;;;;;;;;;;;;;344405;28;988;-67
2022/08/24 00:17:09;;;;;;;;;;;;;;;;;;344388;28;953;-66
2022/08/24 00:17:19;;;;;;;;;;;;;;;;;;344422;28;834;-66
2022/08/24 00:17:29;;;;;;;;;;;;;;;;;;344399;28;980;-66
2022/08/24 00:17:39;;;;;;;;;;;;;;;;;;344417;28;822;-66
2022/08/24 00:17:50;;;;;;;;;;;;;;;;;;344435;28;948;-66
2022/08/24 00:18:00;;;;;;;;;;;;;;;;;;344362;28;1011;-66
2022/08/24 00:18:10;;;;;;;;;;;;;;;;;;344242;28;1321;-66
2022/08/24 00:18:21;;;;;;;;;;;;;;;;;;344255;28;936;-66
2022/08/24 00:18:32;;;;;;;;;;;;;;;;;;344271;28;1227;-66
2022/08/24 00:18:43;;;;;;;;;;;;;;;;;;344321;28;948;-67
2022/08/24 00:18:54;;;;;;;;;;;;;;;;;;344278;28;975;-67
2022/08/24 00:19:05;;;;;;;;;;;;;;;;;;344323;28;1070;-66
2022/08/24 00:19:15;;;;;;;;;;;;;;;;;;344319;28;912;-66
2022/08/24 00:19:26;;;;;;;;;;;;;;;;;;344315;28;987;-66
2022/08/24 00:19:36;;;;;;;;;;;;;;;;;;344351;28;928;-67
2022/08/24 00:19:46;;;;;;;;;;;;;;;;;;344278;28;931;-66
2022/08/24 00:19:56;;;;;;;;;;;;;;;;;;344336;28;1000;-66
2022/08/24 00:20:08;;;;;;;;;;;;;;;;;;344348;28;1035;-66
2022/08/24 00:20:18;;;;;;;;;;;;;;;;;;344378;28;885;-66
2022/08/24 00:20:29;;;;;;;;;;;;;;;;;;344335;28;893;-66
2022/08/24 00:20:39;;;;;;;;;;;;;;;;;;344337;28;964;-66
2022/08/24 00:20:50;;;;;;;;;;;;;;;;;;344379;28;985;-66
2022/08/24 00:21:01;;;;;;;;;;;;;;;;;;344406;28;937;-66
2022/08/24 00:21:11;;;;;;;;;;;;;;;;;;344416;28;917;-66
2022/08/24 00:21:21;;;;;;;;;;;;;;;;;;344433;28;822;-66
2022/08/24 00:21:32;;;;;;;;;;;;;;;;;;344371;28;976;-66
2022/08/24 00:21:42;;;;;;;;;;;;;;;;;;344429;28;822;-66
2022/08/24 00:21:53;;;;;;;;;;;;;;;;;;344388;28;913;-66
2022/08/24 00:22:03;;;;;;;;;;;;;;;;;;344387;28;945;-66
2022/08/24 00:22:13;;;;;;;;;;;;;;;;;;344433;28;949;-66
2022/08/24 00:22:23;;;;;;;;;;;;;;;;;;344343;28;1101;-66
2022/08/24 00:22:34;;;;;;;;;;;;;;;;;;344360;28;961;-66
2022/08/24 00:22:44;;;;;;;;;;;;;;;;;;344384;28;953;-66
2022/08/24 00:22:55;;;;;;;;;;;;;;;;;;344392;28;965;-66
2022/08/24 00:23:05;;;;;;;;;;;;;;;;;;344409;28;849;-66
2022/08/24 00:23:15;;;;;;;;;;;;;;;;;;344373;28;892;-66
2022/08/24 00:23:25;;;;;;;;;;;;;;;;;;344431;28;933;-66
2022/08/24 00:23:36;;;;;;;;;;;;;;;;;;344437;28;848;-66
2022/08/24 00:23:47;;;;;;;;;;;;;;;;;;344348;28;933;-66
2022/08/24 00:23:58;;;;;;;;;;;;;;;;;;344406;28;980;-66
2022/08/24 00:24:08;;;;;;;;;;;;;;;;;;344275;28;956;-66
2022/08/24 00:24:19;;;;;;;;;;;;;;;;;;344118;28;1375;-66
2022/08/24 00:24:29;;;;;;;;;;;;;;;;;;344350;28;992;-66
2022/08/24 00:24:39;;;;;;;;;;;;;;;;;;344427;28;854;-66
2022/08/24 00:24:49;;;;;;;;;;;;;;;;;;344361;28;933;-66
2022/08/24 00:25:00;;;;;;;;;;;;;;;;;;344347;28;957;-66
2022/08/24 00:25:11;;;;;;;;;;;;;;;;;;344410;28;933;-66
2022/08/24 00:25:21;;;;;;;;;;;;;;;;;;344531;28;908;-66
2022/08/24 00:25:31;;;;;;;;;;;;;;;;;;344365;28;909;-66
2022/08/24 00:25:42;;;;;;;;;;;;;;;;;;344402;28;959;-67
2022/08/24 00:25:52;;;;;;;;;;;;;;;;;;344422;28;1052;-66
2022/08/24 00:26:04;;;;;;;;;;;;;;;;;;344365;28;991;-66
2022/08/24 00:26:14;;;;;;;;;;;;;;;;;;344394;28;921;-66
2022/08/24 00:26:25;;;;;;;;;;;;;;;;;;344403;28;949;-66
2022/08/24 00:26:35;;;;;;;;;;;;;;;;;;344375;28;988;-66
2022/08/24 00:26:46;;;;;;;;;;;;;;;;;;344306;28;956;-66
2022/08/24 00:26:56;;;;;;;;;;;;;;;;;;344375;28;948;-66
2022/08/24 00:27:07;;;;;;;;;;;;;;;;;;344407;28;1031;-66
2022/08/24 00:27:17;;;;;;;;;;;;;;;;;;344390;28;952;-66
2022/08/24 00:27:27;;;;;;;;;;;;;;;;;;344407;28;929;-66
2022/08/24 00:27:38;;;;;;;;;;;;;;;;;;344394;28;1007;-66
2022/08/24 00:27:48;;;;;;;;;;;;;;;;;;344348;28;972;-66
2022/08/24 00:27:59;;;;;;;;;;;;;;;;;;344361;28;805;-66
2022/08/24 00:28:09;;;;;;;;;;;;;;;;;;344392;28;921;-66
2022/08/24 00:28:19;;;;;;;;;;;;;;;;;;344426;28;781;-66
2022/08/24 00:28:30;;;;;;;;;;;;;;;;;;344379;28;905;-67
2022/08/24 00:28:40;;;;;;;;;;;;;;;;;;344352;28;968;-66
2022/08/24 00:28:51;;;;;;;;;;;;;;;;;;344398;28;909;-66
2022/08/24 00:29:01;;;;;;;;;;;;;;;;;;344397;28;864;-66
2022/08/24 00:29:12;;;;;;;;;;;;;;;;;;344456;28;921;-66
2022/08/24 00:29:22;;;;;;;;;;;;;;;;;;344404;28;920;-66
2022/08/24 00:29:33;;;;;;;;;;;;;;;;;;344251;28;1906;-66
2022/08/24 00:29:44;;;;;;;;;;;;;;;;;;344345;28;980;-66
2022/08/24 00:29:54;;;;;;;;;;;;;;;;;;344342;28;1174;-66
2022/08/24 00:30:07;;;;;;;;;;;;;;;;;;344375;28;997;-66
2022/08/24 00:30:18;;;;;;;;;;;;;;;;;;344369;28;976;-66
2022/08/24 00:30:29;;;;;;;;;;;;;;;;;;344412;28;979;-66
2022/08/24 00:30:39;;;;;;;;;;;;;;;;;;344409;28;952;-66
2022/08/24 00:30:50;;;;;;;;;;;;;;;;;;344395;28;933;-67
2022/08/24 00:31:01;;;;;;;;;;;;;;;;;;344279;28;980;-66
2022/08/24 00:31:11;;;;;;;;;;;;;;;;;;344399;28;932;-67
2022/08/24 00:31:21;;;;;;;;;;;;;;;;;;344383;28;945;-66
2022/08/24 00:31:32;;;;;;;;;;;;;;;;;;344394;28;909;-66
2022/08/24 00:31:42;;;;;;;;;;;;;;;;;;344370;28;961;-66
2022/08/24 00:31:53;;;;;;;;;;;;;;;;;;344428;28;921;-66
2022/08/24 00:32:03;;;;;;;;;;;;;;;;;;344372;28;913;-66
2022/08/24 00:32:13;;;;;;;;;;;;;;;;;;344397;28;1015;-66
2022/08/24 00:32:23;;;;;;;;;;;;;;;;;;344353;28;996;-66
2022/08/24 00:32:36;;;;;;;;;;;;;;;;;;344424;28;786;-66
2022/08/24 00:32:47;;;;;;;;;;;;;;;;;;344420;28;991;-65
2022/08/24 00:32:57;;;;;;;;;;;;;;;;;;344321;28;952;-66
2022/08/24 00:33:07;;;;;;;;;;;;;;;;;;344346;28;932;-66
2022/08/24 00:33:18;;;;;;;;;;;;;;;;;;344384;28;1189;-66
2022/08/24 00:33:28;;;;;;;;;;;;;;;;;;344396;28;948;-67
2022/08/24 00:33:38;;;;;;;;;;;;;;;;;;344443;28;774;-66
2022/08/24 00:33:48;;;;;;;;;;;;;;;;;;344334;28;937;-67
2022/08/24 00:33:58;;;;;;;;;;;;;;;;;;344402;28;830;-66
2022/08/24 00:34:09;;;;;;;;;;;;;;;;;;344370;28;960;-67
2022/08/24 00:34:19;;;;;;;;;;;;;;;;;;344407;28;975;-66
2022/08/24 00:34:30;;;;;;;;;;;;;;;;;;344343;28;980;-66
2022/08/24 00:34:40;;;;;;;;;;;;;;;;;;344414;28;991;-66
2022/08/24 00:34:51;;;;;;;;;;;;;;;;;;344355;28;1042;-66
2022/08/24 00:35:01;;;;;;;;;;;;;;;;;;344296;28;913;-66
2022/08/24 00:35:12;;;;;;;;;;;;;;;;;;344353;28;1069;-66
2022/08/24 00:35:23;;;;;;;;;;;;;;;;;;344390;28;897;-66
2022/08/24 00:35:33;;;;;;;;;;;;;;;;;;344386;28;938;-66
2022/08/24 00:35:44;;;;;;;;;;;;;;;;;;344321;28;1075;-67
2022/08/24 00:35:54;;;;;;;;;;;;;;;;;;344428;28;893;-66
2022/08/24 00:36:04;;;;;;;;;;;;;;;;;;344350;28;921;-67
2022/08/24 00:36:14;;;;;;;;;;;;;;;;;;344314;28;917;-66
2022/08/24 00:36:25;;;;;;;;;;;;;;;;;;344391;28;988;-67
2022/08/24 00:36:35;;;;;;;;;;;;;;;;;;344385;28;909;-66
2022/08/24 00:36:45;;;;;;;;;;;;;;;;;;344306;28;1015;-67
2022/08/24 00:36:56;;;;;;;;;;;;;;;;;;344405;28;933;-66
2022/08/24 00:37:06;;;;;;;;;;;;;;;;;;344307;28;945;-66
2022/08/24 00:37:16;;;;;;;;;;;;;;;;;;344454;28;1619;-66
2022/08/24 00:37:27;;;;;;;;;;;;;;;;;;344442;28;779;-66
2022/08/24 00:37:38;;;;;;;;;;;;;;;;;;344461;28;825;-66
2022/08/24 00:37:49;;;;;;;;;;;;;;;;;;344308;28;976;-67
2022/08/24 00:37:59;;;;;;;;;;;;;;;;;;344374;28;964;-66
2022/08/24 00:38:09;;;;;;;;;;;;;;;;;;344340;28;917;-66
2022/08/24 00:38:19;;;;;;;;;;;;;;;;;;344382;28;842;-67
2022/08/24 00:38:29;;;;;;;;;;;;;;;;;;344392;28;790;-66
2022/08/24 00:38:40;;;;;;;;;;;;;;;;;;344388;28;897;-66
2022/08/24 00:38:50;;;;;;;;;;;;;;;;;;344350;28;925;-66
2022/08/24 00:39:01;;;;;;;;;;;;;;;;;;344393;28;897;-66
2022/08/24 00:39:11;;;;;;;;;;;;;;;;;;344332;28;1004;-67
2022/08/24 00:39:22;;;;;;;;;;;;;;;;;;344363;28;991;-66
2022/08/24 00:39:32;;;;;;;;;;;;;;;;;;344384;28;1688;-66
2022/08/24 00:39:42;;;;;;;;;;;;;;;;;;344471;28;952;-66
2022/08/24 00:39:53;;;;;;;;;;;;;;;;;;344346;28;1080;-67
2022/08/24 00:40:05;;;;;;;;;;;;;;;;;;344404;28;865;-66
2022/08/24 00:40:18;;;;;;;;;;;;;;;;;;344424;28;925;-66
2022/08/24 00:40:32;;;;;;;;;;;;;;;;;;344390;28;889;-66
2022/08/24 00:40:44;;;;;;;;;;;;;;;;;;344371;28;921;-66
2022/08/24 00:40:55;;;;;;;;;;;;;;;;;;344934;28;1181;-66
2022/08/24 00:41:05;;;;;;;;;;;;;;;;;;345666;28;937;-66
2022/08/24 00:41:15;;;;;;;;;;;;;;;;;;345642;28;944;-66
2022/08/24 00:41:26;;;;;;;;;;;;;;;;;;345781;28;988;-66
2022/08/24 00:41:44;;;;;;;;;;;;;;;;;;345727;28;1009;-66
2022/08/24 00:41:54;;;;;;;;;;;;;;;;;;345778;28;927;-66
2022/08/24 00:42:04;;;;;;;;;;;;;;;;;;345738;28;964;-66
2022/08/24 00:42:14;;;;;;;;;;;;;;;;;;345688;28;928;-66
2022/08/24 00:42:25;;;;;;;;;;;;;;;;;;345753;28;846;-66
2022/08/24 00:42:35;;;;;;;;;;;;;;;;;;345714;28;770;-67
2022/08/24 00:42:46;;;;;;;;;;;;;;;;;;345760;28;1004;-66
2022/08/24 00:43:02;;;;;;;;;;;;;;;;;;345719;28;896;-66
2022/08/24 00:43:13;;;;;;;;;;;;;;;;;;345705;28;1022;-66
2022/08/24 00:43:24;;;;;;;;;;;;;;;;;;345743;28;774;-66
2022/08/24 00:43:34;;;;;;;;;;;;;;;;;;345706;28;937;-66
2022/08/24 00:43:53;;;;;;;;;;;;;;;;;;345747;28;968;-66
2022/08/24 00:44:04;;;;;;;;;;;;;;;;;;345730;28;924;-66
2022/08/24 00:44:15;;;;;;;;;;;;;;;;;;345678;28;936;-66
2022/08/24 00:44:25;;;;;;;;;;;;;;;;;;345738;28;868;-67
2022/08/24 00:44:36;;;;;;;;;;;;;;;;;;345756;28;932;-67
2022/08/24 00:44:46;;;;;;;;;;;;;;;;;;345661;28;956;-66
2022/08/24 00:44:57;;;;;;;;;;;;;;;;;;345780;28;790;-67
2022/08/24 00:45:09;;;;;;;;;;;;;;;;;;345746;28;860;-66
2022/08/24 00:45:19;;;;;;;;;;;;;;;;;;345672;28;924;-66
2022/08/24 00:45:35;;;;;;;;;;;;;;;;;;345707;28;944;-66
2022/08/24 00:45:50;;;;;;;;;;;;;;;;;;345752;28;936;-66
2022/08/24 00:46:12;;;;;;;;;;;;;;;;;;345714;28;853;-66
2022/08/24 00:46:27;;;;;;;;;;;;;;;;;;345746;28;971;-67
2022/08/24 00:46:48;;;;;;;;;;;;;;;;;;345698;28;992;-66
2022/08/24 00:47:06;;;;;;;;;;;;;;;;;;345713;28;983;-66
2022/08/24 00:47:22;;;;;;;;;;;;;;;;;;345690;28;1075;-66
2022/08/24 00:47:47;;;;;;;;;;;;;;;;;;345715;28;771;-66
2022/08/24 00:47:58;;;;;;;;;;;;;;;;;;345694;28;968;-66
2022/08/24 00:48:14;;;;;;;;;;;;;;;;;;345735;28;857;-66
2022/08/24 00:48:26;;;;;;;;;;;;;;;;;;345742;28;925;-67
2022/08/24 00:48:40;;;;;;;;;;;;;;;;;;345738;28;801;-66
2022/08/24 00:48:55;;;;;;;;;;;;;;;;;;345783;28;932;-66
2022/08/24 00:49:10;;;;;;;;;;;;;;;;;;345746;28;932;-66
2022/08/24 00:49:27;;;;;;;;;;;;;;;;;;345675;28;1068;-66
2022/08/24 00:49:43;;;;;;;;;;;;;;;;;;345654;27;790;-66
2022/08/24 00:50:05;;;;;;;;;;;;;;;;;;345761;28;967;-66
2022/08/24 00:50:18;;;;;;;;;;;;;;;;;;345709;28;937;-66
2022/08/24 00:50:34;;;;;;;;;;;;;;;;;;345719;28;920;-66
2022/08/24 00:50:47;;;;;;;;;;;;;;;;;;345724;28;821;-66
2022/08/24 00:50:59;;;;;;;;;;;;;;;;;;345725;28;952;-66
2022/08/24 00:51:22;;;;;;;;;;;;;;;;;;345772;28;837;-66
2022/08/24 00:51:36;;;;;;;;;;;;;;;;;;345668;28;1011;-66
2022/08/24 00:52:07;;;;;;;;;;;;;;;;;;345765;28;928;-66
2022/08/24 00:52:26;;;;;;;;;;;;;;;;;;345723;28;794;-66
2022/08/24 00:52:49;;;;;;;;;;;;;;;;;;345784;28;980;-66
2022/08/24 00:53:01;;;;;;;;;;;;;;;;;;345737;28;920;-66
2022/08/24 00:53:15;;;;;;;;;;;;;;;;;;345707;28;902;-66
2022/08/24 00:53:31;;;;;;;;;;;;;;;;;;345710;28;928;-66
2022/08/24 00:53:44;;;;;;;;;;;;;;;;;;345629;28;992;-67
2022/08/24 00:53:57;;;;;;;;;;;;;;;;;;345200;28;1407;-66
2022/08/24 00:54:11;;;;;;;;;;;;;;;;;;344334;28;944;-67
2022/08/24 00:54:23;;;;;;;;;;;;;;;;;;344368;28;1012;-66
2022/08/24 00:54:37;;;;;;;;;;;;;;;;;;344408;28;834;-67
2022/08/24 00:54:50;;;;;;;;;;;;;;;;;;344351;28;878;-66
2022/08/24 00:55:04;;;;;;;;;;;;;;;;;;344380;28;968;-66
2022/08/24 00:55:25;;;;;;;;;;;;;;;;;;344362;28;984;-66
2022/08/24 00:55:38;;;;;;;;;;;;;;;;;;344327;28;1055;-66
2022/08/24 00:55:50;;;;;;;;;;;;;;;;;;344395;28;932;-66
2022/08/24 00:56:03;;;;;;;;;;;;;;;;;;344298;28;1153;-66
2022/08/24 00:56:16;;;;;;;;;;;;;;;;;;344379;28;995;-66
2022/08/24 00:56:30;;;;;;;;;;;;;;;;;;344212;28;1127;-66
2022/08/24 00:56:42;;;;;;;;;;;;;;;;;;344354;28;921;-66
2022/08/24 00:56:55;;;;;;;;;;;;;;;;;;344358;28;929;-66
2022/08/24 00:57:09;;;;;;;;;;;;;;;;;;344244;28;1220;-66
2022/08/24 00:57:25;;;;;;;;;;;;;;;;;;344428;28;873;-66
2022/08/24 00:57:40;;;;;;;;;;;;;;;;;;344345;28;940;-66
2022/08/24 00:57:52;;;;;;;;;;;;;;;;;;344276;28;992;-66
2022/08/24 00:58:08;;;;;;;;;;;;;;;;;;346894;28;1182;-66
2022/08/24 00:58:24;;;;;;;;;;;;;;;;;;346990;28;873;-66
2022/08/24 00:58:39;;;;;;;;;;;;;;;;;;346910;28;929;-66
2022/08/24 00:59:00;;;;;;;;;;;;;;;;;;346994;28;830;-66
2022/08/24 00:59:14;;;;;;;;;;;;;;;;;;347009;28;873;-66
2022/08/24 00:59:34;;;;;;;;;;;;;;;;;;346923;28;1000;-66
2022/08/24 00:59:51;;;;;;;;;;;;;;;;;;346991;28;1019;-66
2022/08/24 01:00:11;;;;;;;;;;;;;;;;;;344888;28;1007;-66
2022/08/24 01:00:23;;;;;;;;;;;;;;;;;;344284;28;991;-66
2022/08/24 01:00:35;;;;;;;;;;;;;;;;;;344468;28;786;-66
2022/08/24 01:00:48;;;;;;;;;;;;;;;;;;344350;28;975;-66
2022/08/24 01:01:01;;;;;;;;;;;;;;;;;;344310;28;923;-66
2022/08/24 01:01:13;;;;;;;;;;;;;;;;;;344372;28;980;-66
2022/08/24 01:01:24;;;;;;;;;;;;;;;;;;344400;28;947;-66
2022/08/24 01:01:35;;;;;;;;;;;;;;;;;;344263;28;995;-66
2022/08/24 01:01:45;;;;;;;;;;;;;;;;;;344368;28;925;-67
2022/08/24 01:01:55;;;;;;;;;;;;;;;;;;344522;28;991;-66
2022/08/24 01:02:10;;;;;;;;;;;;;;;;;;344290;28;980;-66
2022/08/24 01:02:25;;;;;;;;;;;;;;;;;;344351;28;872;-66
2022/08/24 01:02:37;;;;;;;;;;;;;;;;;;344377;28;781;-66
2022/08/24 01:02:51;;;;;;;;;;;;;;;;;;344293;28;1077;-66
2022/08/24 01:03:03;;;;;;;;;;;;;;;;;;344302;28;936;-66
2022/08/24 01:03:14;;;;;;;;;;;;;;;;;;344209;28;1361;-66
2022/08/24 01:03:26;;;;;;;;;;;;;;;;;;344406;28;1113;-66
2022/08/24 01:03:37;;;;;;;;;;;;;;;;;;344307;28;987;-66
2022/08/24 01:03:47;;;;;;;;;;;;;;;;;;344298;28;1129;-66
2022/08/24 01:03:58;;;;;;;;;;;;;;;;;;344363;28;975;-66
2022/08/24 01:04:16;;;;;;;;;;;;;;;;;;344310;28;872;-66
2022/08/24 01:04:31;;;;;;;;;;;;;;;;;;344397;28;766;-66
2022/08/24 01:04:51;;;;;;;;;;;;;;;;;;344365;28;912;-66
2022/08/24 01:05:04;;;;;;;;;;;;;;;;;;344337;28;921;-66
2022/08/24 01:05:17;;;;;;;;;;;;;;;;;;344404;28;904;-66
2022/08/24 01:05:28;;;;;;;;;;;;;;;;;;344377;28;1126;-66
2022/08/24 01:05:38;;;;;;;;;;;;;;;;;;344384;28;891;-66
2022/08/24 01:05:48;;;;;;;;;;;;;;;;;;344323;28;944;-66
2022/08/24 01:05:59;;;;;;;;;;;;;;;;;;344319;28;836;-66
2022/08/24 01:06:11;;;;;;;;;;;;;;;;;;344323;28;932;-66
2022/08/24 01:06:21;;;;;;;;;;;;;;;;;;344397;28;948;-66
2022/08/24 01:06:32;;;;;;;;;;;;;;;;;;344419;28;852;-66
2022/08/24 01:06:42;;;;;;;;;;;;;;;;;;344323;28;789;-66
2022/08/24 01:06:53;;;;;;;;;;;;;;;;;;344374;28;964;-66
2022/08/24 01:07:03;;;;;;;;;;;;;;;;;;344349;28;917;-66
2022/08/24 01:07:14;;;;;;;;;;;;;;;;;;344371;28;825;-66
2022/08/24 01:07:25;;;;;;;;;;;;;;;;;;344254;28;1255;-66
2022/08/24 01:07:37;;;;;;;;;;;;;;;;;;344278;28;1383;-67
2022/08/24 01:07:48;;;;;;;;;;;;;;;;;;344278;28;1012;-66
2022/08/24 01:07:59;;;;;;;;;;;;;;;;;;344434;28;770;-66
2022/08/24 01:08:10;;;;;;;;;;;;;;;;;;344348;28;782;-66
2022/08/24 01:08:22;;;;;;;;;;;;;;;;;;344316;28;801;-66
2022/08/24 01:08:32;;;;;;;;;;;;;;;;;;344306;28;952;-66
2022/08/24 01:08:43;;;;;;;;;;;;;;;;;;344346;28;845;-66
2022/08/24 01:08:53;;;;;;;;;;;;;;;;;;344400;28;983;-66
2022/08/24 01:09:04;;;;;;;;;;;;;;;;;;344364;28;992;-66
2022/08/24 01:09:15;;;;;;;;;;;;;;;;;;344352;28;1019;-66
2022/08/24 01:09:25;;;;;;;;;;;;;;;;;;344368;28;910;-67
2022/08/24 01:09:35;;;;;;;;;;;;;;;;;;344352;28;1039;-66
2022/08/24 01:09:45;;;;;;;;;;;;;;;;;;344335;28;929;-66
2022/08/24 01:09:59;;;;;;;;;;;;;;;;;;344376;28;1002;-66
2022/08/24 01:10:11;;;;;;;;;;;;;;;;;;344375;28;782;-66
2022/08/24 01:10:26;;;;;;;;;;;;;;;;;;344264;28;850;-66
2022/08/24 01:10:41;;;;;;;;;;;;;;;;;;344300;28;944;-66
2022/08/24 01:10:55;;;;;;;;;;;;;;;;;;344300;28;857;-66
2022/08/24 01:11:13;;;;;;;;;;;;;;;;;;344353;28;956;-66
2022/08/24 01:11:25;;;;;;;;;;;;;;;;;;344317;28;1023;-66
2022/08/24 01:11:35;;;;;;;;;;;;;;;;;;344357;28;980;-66
2022/08/24 01:11:46;;;;;;;;;;;;;;;;;;344332;28;945;-66
2022/08/24 01:11:57;;;;;;;;;;;;;;;;;;344358;28;988;-67
2022/08/24 01:12:08;;;;;;;;;;;;;;;;;;344372;28;952;-66
2022/08/24 01:12:19;;;;;;;;;;;;;;;;;;344373;28;938;-66
2022/08/24 01:12:32;;;;;;;;;;;;;;;;;;344218;28;968;-66
2022/08/24 01:12:44;;;;;;;;;;;;;;;;;;344389;28;861;-66
2022/08/24 01:12:57;;;;;;;;;;;;;;;;;;344392;28;1031;-66
2022/08/24 01:13:10;;;;;;;;;;;;;;;;;;344349;28;808;-66
2022/08/24 01:13:21;;;;;;;;;;;;;;;;;;344382;28;932;-66
2022/08/24 01:13:32;;;;;;;;;;;;;;;;;;344393;28;794;-66
2022/08/24 01:13:44;;;;;;;;;;;;;;;;;;344314;28;933;-66
2022/08/24 01:13:55;;;;;;;;;;;;;;;;;;344324;28;932;-66
2022/08/24 01:14:05;;;;;;;;;;;;;;;;;;344346;28;1047;-66
2022/08/24 01:14:18;;;;;;;;;;;;;;;;;;344299;28;975;-66
2022/08/24 01:14:29;;;;;;;;;;;;;;;;;;344359;28;960;-66
2022/08/24 01:14:39;;;;;;;;;;;;;;;;;;344296;28;1184;-66
2022/08/24 01:14:49;;;;;;;;;;;;;;;;;;344293;28;963;-66
2022/08/24 01:15:01;;;;;;;;;;;;;;;;;;344311;28;1059;-66
2022/08/24 01:15:11;;;;;;;;;;;;;;;;;;344345;28;925;-66
2022/08/24 01:15:21;;;;;;;;;;;;;;;;;;344369;28;925;-66
2022/08/24 01:15:33;;;;;;;;;;;;;;;;;;344272;28;989;-66
2022/08/24 01:15:45;;;;;;;;;;;;;;;;;;344322;28;1012;-66
2022/08/24 01:15:58;;;;;;;;;;;;;;;;;;344327;28;913;-66
2022/08/24 01:16:09;;;;;;;;;;;;;;;;;;344234;28;1202;-66
2022/08/24 01:18:57;;;;;;;;;;;;;;;;;;348410;28;869;-66
2022/08/24 01:19:27;;;;;;;;;;;;;;;;;;348481;28;853;-66
2022/08/24 01:19:41;;;;;;;;;;;;;;;;;;344444;28;1153;-66
2022/08/24 01:19:54;;;;;;;;;;;;;;;;;;344374;28;992;-66
2022/08/24 01:20:05;;;;;;;;;;;;;;;;;;344390;28;975;-66
2022/08/24 01:20:16;;;;;;;;;;;;;;;;;;344316;28;921;-66
2022/08/24 01:20:26;;;;;;;;;;;;;;;;;;344330;28;936;-66
2022/08/24 01:20:36;;;;;;;;;;;;;;;;;;344300;28;936;-66
2022/08/24 01:20:50;;;;;;;;;;;;;;;;;;344327;28;920;-66
2022/08/24 01:21:08;;;;;;;;;;;;;;;;;;344265;28;771;-66
2022/08/24 01:21:36;;;;;;;;;;;;;;;;;;344303;28;964;-66
2022/08/24 01:21:53;;;;;;;;;;;;;;;;;;344380;28;925;-66
2022/08/24 01:22:26;;;;;;;;;;;;;;;;;;344321;28;857;-66
2022/08/24 01:22:55;;;;;;;;;;;;;;;;;;344150;28;1318;-66
2022/08/24 01:23:31;;;;;;;;;;;;;;;;;;344233;28;976;-66
2022/08/24 01:23:43;;;;;;;;;;;;;;;;;;342765;28;1364;-67
2022/08/24 01:23:56;;;;;;;;;;;;;;;;;;344380;28;857;-66
2022/08/24 01:24:10;;;;;;;;;;;;;;;;;;344316;28;797;-66
2022/08/24 01:24:20;;;;;;;;;;;;;;;;;;344374;28;916;-65
2022/08/24 01:24:30;;;;;;;;;;;;;;;;;;344290;28;929;-66
2022/08/24 01:24:41;;;;;;;;;;;;;;;;;;344339;28;976;-66
2022/08/24 01:24:51;;;;;;;;;;;;;;;;;;344402;28;905;-66
2022/08/24 01:25:02;;;;;;;;;;;;;;;;;;344241;28;813;-66
2022/08/24 01:25:12;;;;;;;;;;;;;;;;;;344347;28;1003;-66
2022/08/24 01:25:24;;;;;;;;;;;;;;;;;;344333;28;840;-66
2022/08/24 01:25:35;;;;;;;;;;;;;;;;;;344358;28;940;-66
2022/08/24 01:25:45;;;;;;;;;;;;;;;;;;344378;28;833;-66
2022/08/24 01:25:56;;;;;;;;;;;;;;;;;;344273;28;913;-66
2022/08/24 01:26:08;;;;;;;;;;;;;;;;;;344356;28;786;-66
2022/08/24 01:26:38;;;;;;;;;;;;;;;;;;344370;28;900;-66
2022/08/24 01:26:49;;;;;;;;;;;;;;;;;;344325;28;932;-66
2022/08/24 01:27:00;;;;;;;;;;;;;;;;;;344324;28;940;-66
2022/08/24 01:27:12;;;;;;;;;;;;;;;;;;344289;28;904;-66
2022/08/24 01:27:22;;;;;;;;;;;;;;;;;;344369;28;908;-66
2022/08/24 01:27:33;;;;;;;;;;;;;;;;;;344382;28;932;-66
2022/08/24 01:27:46;;;;;;;;;;;;;;;;;;344310;28;956;-66
2022/08/24 01:27:59;;;;;;;;;;;;;;;;;;344345;28;979;-66
2022/08/24 01:28:11;;;;;;;;;;;;;;;;;;344309;28;897;-66